sensor_id;sensor_type;location;lat;lon;timestamp;P1;durP1;ratioP1;P2;durP2;ratioP2
15958;SDS011;8078;47.822;9.402;2022-08-21T00:01:20;2.80;;;1.40;;
15958;SDS011;8078;47.822;9.402;2022-08-21T00:03:51;1.17;;;1.17;;
15958;SDS011;8078;47.822;9.402;2022-08-21T00:06:17;1.50;;;1.40;;
15958;SDS011;8078;47.822;9.402;2022-08-21T00:08:44;1.35;;;1.25;;
15958;SDS011;8078;47.822;9.402;2022-08-21T00:11:09;1.30;;;1.20;;
15958;SDS011;8078;47.822;9.402;2022-08-21T00:13:35;1.52;;;1.33;;
15958;SDS011;8078;47.822;9.402;2022-08-21T00:16:01;1.40;;;1.30;;
15958;SDS011;8078;47.822;9.402;2022-08-21T00:18:28;1.30;;;1.20;;
15958;SDS011;8078;47.822;9.402;2022-08-21T00:20:53;1.45;;;1.35;;
15958;SDS011;8078;47.822;9.402;2022-08-21T00:23:19;1.83;;;1.50;;
15958;SDS011;8078;47.822;9.402;2022-08-21T00:25:45;2.72;;;1.60;;
15958;SDS011;8078;47.822;9.402;2022-08-21T00:28:11;1.73;;;1.50;;
15958;SDS011;8078;47.822;9.402;2022-08-21T00:30:38;1.63;;;1.52;;
15958;SDS011;8078;47.822;9.402;2022-08-21T00:33:04;2.15;;;1.95;;
15958;SDS011;8078;47.822;9.402;2022-08-21T00:35:33;2.13;;;1.83;;
15958;SDS011;8078;47.822;9.402;2022-08-21T00:38:01;2.67;;;2.00;;
15958;SDS011;8078;47.822;9.402;2022-08-21T00:40:31;1.70;;;1.60;;
15958;SDS011;8078;47.822;9.402;2022-08-21T00:43:00;1.77;;;1.67;;
15958;SDS011;8078;47.822;9.402;2022-08-21T00:45:27;2.95;;;1.63;;
15958;SDS011;8078;47.822;9.402;2022-08-21T00:47:53;1.75;;;1.65;;
15958;SDS011;8078;47.822;9.402;2022-08-21T00:50:20;1.70;;;1.60;;
15958;SDS011;8078;47.822;9.402;2022-08-21T00:52:46;1.45;;;1.35;;
15958;SDS011;8078;47.822;9.402;2022-08-21T00:55:12;1.40;;;1.30;;
15958;SDS011;8078;47.822;9.402;2022-08-21T00:57:43;1.48;;;1.38;;
15958;SDS011;8078;47.822;9.402;2022-08-21T01:00:16;2.00;;;1.30;;
15958;SDS011;8078;47.822;9.402;2022-08-21T01:02:45;1.35;;;1.27;;
15958;SDS011;8078;47.822;9.402;2022-08-21T01:05:11;3.03;;;1.33;;
15958;SDS011;8078;47.822;9.402;2022-08-21T01:07:37;1.48;;;1.38;;
15958;SDS011;8078;47.822;9.402;2022-08-21T01:10:05;1.38;;;1.20;;
15958;SDS011;8078;47.822;9.402;2022-08-21T01:12:32;1.15;;;1.15;;
15958;SDS011;8078;47.822;9.402;2022-08-21T01:14:58;1.27;;;1.17;;
15958;SDS011;8078;47.822;9.402;2022-08-21T01:17:24;1.23;;;1.10;;
15958;SDS011;8078;47.822;9.402;2022-08-21T01:19:51;1.25;;;1.25;;
15958;SDS011;8078;47.822;9.402;2022-08-21T01:22:18;1.20;;;1.10;;
15958;SDS011;8078;47.822;9.402;2022-08-21T01:24:44;1.00;;;1.00;;
15958;SDS011;8078;47.822;9.402;2022-08-21T01:27:10;0.98;;;0.93;;
15958;SDS011;8078;47.822;9.402;2022-08-21T01:29:38;0.90;;;0.90;;
15958;SDS011;8078;47.822;9.402;2022-08-21T01:32:10;1.10;;;1.10;;
15958;SDS011;8078;47.822;9.402;2022-08-21T01:34:38;1.30;;;1.20;;
15958;SDS011;8078;47.822;9.402;2022-08-21T01:37:06;1.10;;;1.10;;
15958;SDS011;8078;47.822;9.402;2022-08-21T01:39:33;1.05;;;1.05;;
15958;SDS011;8078;47.822;9.402;2022-08-21T01:41:59;1.17;;;1.00;;
15958;SDS011;8078;47.822;9.402;2022-08-21T01:44:25;1.00;;;1.00;;
15958;SDS011;8078;47.822;9.402;2022-08-21T01:46:51;1.20;;;1.10;;
15958;SDS011;8078;47.822;9.402;2022-08-21T01:49:18;1.08;;;1.08;;
15958;SDS011;8078;47.822;9.402;2022-08-21T01:51:44;1.10;;;1.10;;
15958;SDS011;8078;47.822;9.402;2022-08-21T01:54:10;1.23;;;1.13;;
15958;SDS011;8078;47.822;9.402;2022-08-21T01:56:40;2.42;;;1.00;;
15958;SDS011;8078;47.822;9.402;2022-08-21T01:59:08;2.15;;;1.30;;
15958;SDS011;8078;47.822;9.402;2022-08-21T02:01:34;1.08;;;1.08;;
15958;SDS011;8078;47.822;9.402;2022-08-21T02:04:00;1.17;;;1.17;;
15958;SDS011;8078;47.822;9.402;2022-08-21T02:06:26;1.30;;;1.20;;
15958;SDS011;8078;47.822;9.402;2022-08-21T02:08:52;1.27;;;1.20;;
15958;SDS011;8078;47.822;9.402;2022-08-21T02:11:18;1.35;;;1.25;;
15958;SDS011;8078;47.822;9.402;2022-08-21T02:13:44;1.40;;;1.30;;
15958;SDS011;8078;47.822;9.402;2022-08-21T02:16:10;2.28;;;1.40;;
15958;SDS011;8078;47.822;9.402;2022-08-21T02:18:36;20.85;;;2.63;;
15958;SDS011;8078;47.822;9.402;2022-08-21T02:21:03;1.95;;;1.85;;
15958;SDS011;8078;47.822;9.402;2022-08-21T02:23:29;1.65;;;1.55;;
15958;SDS011;8078;47.822;9.402;2022-08-21T02:26:03;1.70;;;1.60;;
15958;SDS011;8078;47.822;9.402;2022-08-21T02:28:31;1.63;;;1.52;;
15958;SDS011;8078;47.822;9.402;2022-08-21T02:30:57;1.90;;;1.58;;
15958;SDS011;8078;47.822;9.402;2022-08-21T02:33:25;2.00;;;1.77;;
15958;SDS011;8078;47.822;9.402;2022-08-21T02:35:51;2.95;;;2.13;;
15958;SDS011;8078;47.822;9.402;2022-08-21T02:38:19;2.03;;;1.80;;
15958;SDS011;8078;47.822;9.402;2022-08-21T02:40:51;2.00;;;1.73;;
15958;SDS011;8078;47.822;9.402;2022-08-21T02:43:18;2.55;;;1.58;;
15958;SDS011;8078;47.822;9.402;2022-08-21T02:45:45;1.77;;;1.67;;
15958;SDS011;8078;47.822;9.402;2022-08-21T02:48:13;1.60;;;1.50;;
15958;SDS011;8078;47.822;9.402;2022-08-21T02:50:45;2.35;;;1.42;;
15958;SDS011;8078;47.822;9.402;2022-08-21T02:53:18;2.50;;;1.85;;
15958;SDS011;8078;47.822;9.402;2022-08-21T02:55:45;2.25;;;2.05;;
15958;SDS011;8078;47.822;9.402;2022-08-21T02:58:12;3.33;;;3.03;;
15958;SDS011;8078;47.822;9.402;2022-08-21T03:00:41;25.60;;;3.35;;
15958;SDS011;8078;47.822;9.402;2022-08-21T03:03:07;2.47;;;2.28;;
15958;SDS011;8078;47.822;9.402;2022-08-21T03:05:34;3.50;;;1.83;;
15958;SDS011;8078;47.822;9.402;2022-08-21T03:08:02;1.88;;;1.77;;
15958;SDS011;8078;47.822;9.402;2022-08-21T03:10:31;1.80;;;1.70;;
15958;SDS011;8078;47.822;9.402;2022-08-21T03:12:58;1.92;;;1.70;;
15958;SDS011;8078;47.822;9.402;2022-08-21T03:15:24;2.47;;;1.60;;
15958;SDS011;8078;47.822;9.402;2022-08-21T03:17:49;3.35;;;1.88;;
15958;SDS011;8078;47.822;9.402;2022-08-21T03:20:18;1.80;;;1.70;;
15958;SDS011;8078;47.822;9.402;2022-08-21T03:22:46;3.25;;;2.05;;
15958;SDS011;8078;47.822;9.402;2022-08-21T03:25:12;2.60;;;2.40;;
15958;SDS011;8078;47.822;9.402;2022-08-21T03:27:38;3.40;;;2.60;;
15958;SDS011;8078;47.822;9.402;2022-08-21T03:30:04;2.40;;;2.20;;
15958;SDS011;8078;47.822;9.402;2022-08-21T03:32:31;2.30;;;2.20;;
15958;SDS011;8078;47.822;9.402;2022-08-21T03:34:56;2.30;;;2.10;;
15958;SDS011;8078;47.822;9.402;2022-08-21T03:37:22;1.90;;;1.80;;
15958;SDS011;8078;47.822;9.402;2022-08-21T03:39:49;3.38;;;1.90;;
15958;SDS011;8078;47.822;9.402;2022-08-21T03:42:15;2.20;;;2.00;;
15958;SDS011;8078;47.822;9.402;2022-08-21T03:44:41;3.17;;;1.80;;
15958;SDS011;8078;47.822;9.402;2022-08-21T03:47:06;2.90;;;1.90;;
15958;SDS011;8078;47.822;9.402;2022-08-21T03:49:32;5.85;;;3.60;;
15958;SDS011;8078;47.822;9.402;2022-08-21T03:51:58;9.27;;;5.95;;
15958;SDS011;8078;47.822;9.402;2022-08-21T03:54:24;5.85;;;4.03;;
15958;SDS011;8078;47.822;9.402;2022-08-21T03:56:50;8.35;;;3.53;;
15958;SDS011;8078;47.822;9.402;2022-08-21T03:59:16;3.40;;;2.58;;
15958;SDS011;8078;47.822;9.402;2022-08-21T04:01:50;3.22;;;2.50;;
15958;SDS011;8078;47.822;9.402;2022-08-21T04:04:20;2.90;;;2.55;;
15958;SDS011;8078;47.822;9.402;2022-08-21T04:06:46;5.07;;;2.58;;
15958;SDS011;8078;47.822;9.402;2022-08-21T04:09:12;5.97;;;3.55;;
15958;SDS011;8078;47.822;9.402;2022-08-21T04:11:37;8.48;;;7.57;;
15958;SDS011;8078;47.822;9.402;2022-08-21T04:14:03;11.57;;;8.75;;
15958;SDS011;8078;47.822;9.402;2022-08-21T04:16:29;9.05;;;8.15;;
15958;SDS011;8078;47.822;9.402;2022-08-21T04:18:55;9.10;;;7.45;;
15958;SDS011;8078;47.822;9.402;2022-08-21T04:21:21;8.85;;;7.75;;
15958;SDS011;8078;47.822;9.402;2022-08-21T04:23:48;9.18;;;8.27;;
15958;SDS011;8078;47.822;9.402;2022-08-21T04:26:14;4.70;;;4.22;;
15958;SDS011;8078;47.822;9.402;2022-08-21T04:28:40;5.00;;;4.10;;
15958;SDS011;8078;47.822;9.402;2022-08-21T04:31:06;4.55;;;3.83;;
15958;SDS011;8078;47.822;9.402;2022-08-21T04:33:31;3.70;;;3.40;;
15958;SDS011;8078;47.822;9.402;2022-08-21T04:35:57;6.00;;;3.92;;
15958;SDS011;8078;47.822;9.402;2022-08-21T04:38:22;5.93;;;4.63;;
15958;SDS011;8078;47.822;9.402;2022-08-21T04:40:48;6.00;;;3.33;;
15958;SDS011;8078;47.822;9.402;2022-08-21T04:43:15;3.75;;;2.72;;
15958;SDS011;8078;47.822;9.402;2022-08-21T04:45:42;3.25;;;1.98;;
15958;SDS011;8078;47.822;9.402;2022-08-21T04:48:10;4.63;;;2.83;;
15958;SDS011;8078;47.822;9.402;2022-08-21T04:50:48;5.28;;;2.72;;
15958;SDS011;8078;47.822;9.402;2022-08-21T04:53:22;8.00;;;2.97;;
15958;SDS011;8078;47.822;9.402;2022-08-21T04:55:52;6.25;;;3.13;;
15958;SDS011;8078;47.822;9.402;2022-08-21T04:58:21;11.30;;;3.45;;
15958;SDS011;8078;47.822;9.402;2022-08-21T05:00:51;6.05;;;2.75;;
15958;SDS011;8078;47.822;9.402;2022-08-21T05:03:19;7.60;;;3.60;;
15958;SDS011;8078;47.822;9.402;2022-08-21T05:05:46;8.02;;;3.00;;
15958;SDS011;8078;47.822;9.402;2022-08-21T05:08:14;5.97;;;3.25;;
15958;SDS011;8078;47.822;9.402;2022-08-21T05:10:43;6.80;;;2.92;;
15958;SDS011;8078;47.822;9.402;2022-08-21T05:13:09;5.78;;;3.40;;
15958;SDS011;8078;47.822;9.402;2022-08-21T05:15:37;9.18;;;3.08;;
15958;SDS011;8078;47.822;9.402;2022-08-21T05:18:04;6.78;;;3.10;;
15958;SDS011;8078;47.822;9.402;2022-08-21T05:20:31;5.28;;;3.00;;
15958;SDS011;8078;47.822;9.402;2022-08-21T05:22:59;8.00;;;2.58;;
15958;SDS011;8078;47.822;9.402;2022-08-21T05:25:25;6.00;;;2.42;;
15958;SDS011;8078;47.822;9.402;2022-08-21T05:27:51;7.28;;;2.83;;
15958;SDS011;8078;47.822;9.402;2022-08-21T05:30:16;5.88;;;2.83;;
15958;SDS011;8078;47.822;9.402;2022-08-21T05:32:42;6.47;;;2.72;;
15958;SDS011;8078;47.822;9.402;2022-08-21T05:35:08;4.65;;;2.50;;
15958;SDS011;8078;47.822;9.402;2022-08-21T05:37:34;5.05;;;2.40;;
15958;SDS011;8078;47.822;9.402;2022-08-21T05:40:00;4.20;;;2.00;;
15958;SDS011;8078;47.822;9.402;2022-08-21T05:42:26;2.42;;;1.83;;
15958;SDS011;8078;47.822;9.402;2022-08-21T05:44:52;1.90;;;1.80;;
15958;SDS011;8078;47.822;9.402;2022-08-21T05:47:18;4.00;;;1.92;;
15958;SDS011;8078;47.822;9.402;2022-08-21T05:49:44;3.08;;;1.90;;
15958;SDS011;8078;47.822;9.402;2022-08-21T05:52:09;2.17;;;1.98;;
15958;SDS011;8078;47.822;9.402;2022-08-21T05:54:36;4.32;;;2.00;;
15958;SDS011;8078;47.822;9.402;2022-08-21T05:57:02;1.98;;;1.77;;
15958;SDS011;8078;47.822;9.402;2022-08-21T05:59:28;3.58;;;1.92;;
15958;SDS011;8078;47.822;9.402;2022-08-21T06:01:53;2.53;;;1.92;;
15958;SDS011;8078;47.822;9.402;2022-08-21T06:04:19;2.22;;;1.73;;
15958;SDS011;8078;47.822;9.402;2022-08-21T06:06:45;2.80;;;1.50;;
15958;SDS011;8078;47.822;9.402;2022-08-21T06:09:12;2.70;;;1.63;;
15958;SDS011;8078;47.822;9.402;2022-08-21T06:11:37;2.33;;;1.70;;
15958;SDS011;8078;47.822;9.402;2022-08-21T06:14:03;3.15;;;1.80;;
15958;SDS011;8078;47.822;9.402;2022-08-21T06:16:31;2.88;;;1.80;;
15958;SDS011;8078;47.822;9.402;2022-08-21T06:18:57;2.85;;;1.50;;
15958;SDS011;8078;47.822;9.402;2022-08-21T06:21:22;5.53;;;2.50;;
15958;SDS011;8078;47.822;9.402;2022-08-21T06:23:48;4.88;;;1.80;;
15958;SDS011;8078;47.822;9.402;2022-08-21T06:26:14;3.05;;;1.75;;
15958;SDS011;8078;47.822;9.402;2022-08-21T06:28:40;2.60;;;1.42;;
15958;SDS011;8078;47.822;9.402;2022-08-21T06:31:10;1.90;;;1.70;;
15958;SDS011;8078;47.822;9.402;2022-08-21T06:33:36;4.00;;;1.80;;
15958;SDS011;8078;47.822;9.402;2022-08-21T06:36:02;4.93;;;2.05;;
15958;SDS011;8078;47.822;9.402;2022-08-21T06:38:28;6.70;;;2.10;;
15958;SDS011;8078;47.822;9.402;2022-08-21T06:40:53;2.80;;;2.00;;
15958;SDS011;8078;47.822;9.402;2022-08-21T06:43:19;2.90;;;1.90;;
15958;SDS011;8078;47.822;9.402;2022-08-21T06:45:44;6.55;;;2.53;;
15958;SDS011;8078;47.822;9.402;2022-08-21T06:48:10;5.70;;;2.58;;
15958;SDS011;8078;47.822;9.402;2022-08-21T06:50:36;6.07;;;2.55;;
15958;SDS011;8078;47.822;9.402;2022-08-21T06:53:04;3.75;;;2.25;;
15958;SDS011;8078;47.822;9.402;2022-08-21T06:55:40;4.55;;;2.25;;
15958;SDS011;8078;47.822;9.402;2022-08-21T06:58:07;5.05;;;2.10;;
15958;SDS011;8078;47.822;9.402;2022-08-21T07:00:34;4.18;;;2.22;;
15958;SDS011;8078;47.822;9.402;2022-08-21T07:03:03;2.97;;;2.10;;
15958;SDS011;8078;47.822;9.402;2022-08-21T07:05:29;4.72;;;2.42;;
15958;SDS011;8078;47.822;9.402;2022-08-21T07:07:55;3.58;;;2.33;;
15958;SDS011;8078;47.822;9.402;2022-08-21T07:10:22;5.28;;;2.60;;
15958;SDS011;8078;47.822;9.402;2022-08-21T07:12:49;4.88;;;2.63;;
15958;SDS011;8078;47.822;9.402;2022-08-21T07:15:15;5.22;;;2.30;;
15958;SDS011;8078;47.822;9.402;2022-08-21T07:17:41;2.85;;;2.20;;
15958;SDS011;8078;47.822;9.402;2022-08-21T07:20:07;4.20;;;2.58;;
15958;SDS011;8078;47.822;9.402;2022-08-21T07:22:35;4.55;;;2.38;;
15958;SDS011;8078;47.822;9.402;2022-08-21T07:25:03;4.20;;;2.45;;
15958;SDS011;8078;47.822;9.402;2022-08-21T07:27:29;3.53;;;1.95;;
15958;SDS011;8078;47.822;9.402;2022-08-21T07:29:56;3.72;;;2.03;;
15958;SDS011;8078;47.822;9.402;2022-08-21T07:32:22;3.30;;;2.25;;
15958;SDS011;8078;47.822;9.402;2022-08-21T07:34:48;2.85;;;2.28;;
15958;SDS011;8078;47.822;9.402;2022-08-21T07:37:13;4.82;;;2.22;;
15958;SDS011;8078;47.822;9.402;2022-08-21T07:39:39;3.42;;;2.30;;
15958;SDS011;8078;47.822;9.402;2022-08-21T07:42:04;3.47;;;2.25;;
15958;SDS011;8078;47.822;9.402;2022-08-21T07:44:30;5.50;;;2.65;;
15958;SDS011;8078;47.822;9.402;2022-08-21T07:46:56;8.68;;;2.55;;
15958;SDS011;8078;47.822;9.402;2022-08-21T07:49:22;4.28;;;2.35;;
15958;SDS011;8078;47.822;9.402;2022-08-21T07:51:48;5.65;;;2.17;;
15958;SDS011;8078;47.822;9.402;2022-08-21T07:54:13;3.05;;;2.15;;
15958;SDS011;8078;47.822;9.402;2022-08-21T07:56:39;5.45;;;2.50;;
15958;SDS011;8078;47.822;9.402;2022-08-21T07:59:04;4.32;;;2.22;;
15958;SDS011;8078;47.822;9.402;2022-08-21T08:01:30;7.13;;;2.70;;
15958;SDS011;8078;47.822;9.402;2022-08-21T08:03:55;5.10;;;2.90;;
15958;SDS011;8078;47.822;9.402;2022-08-21T08:06:21;3.63;;;2.30;;
15958;SDS011;8078;47.822;9.402;2022-08-21T08:08:47;3.75;;;2.28;;
15958;SDS011;8078;47.822;9.402;2022-08-21T08:11:13;5.53;;;2.10;;
15958;SDS011;8078;47.822;9.402;2022-08-21T08:13:46;2.47;;;2.03;;
15958;SDS011;8078;47.822;9.402;2022-08-21T08:16:13;6.07;;;2.47;;
15958;SDS011;8078;47.822;9.402;2022-08-21T08:18:39;5.43;;;2.78;;
15958;SDS011;8078;47.822;9.402;2022-08-21T08:21:07;6.13;;;2.63;;
15958;SDS011;8078;47.822;9.402;2022-08-21T08:23:33;6.88;;;2.47;;
15958;SDS011;8078;47.822;9.402;2022-08-21T08:26:00;4.85;;;2.47;;
15958;SDS011;8078;47.822;9.402;2022-08-21T08:28:27;5.55;;;2.60;;
15958;SDS011;8078;47.822;9.402;2022-08-21T08:30:53;6.07;;;2.47;;
15958;SDS011;8078;47.822;9.402;2022-08-21T08:33:20;7.68;;;2.63;;
15958;SDS011;8078;47.822;9.402;2022-08-21T08:35:46;6.40;;;2.40;;
15958;SDS011;8078;47.822;9.402;2022-08-21T08:38:15;6.30;;;2.53;;
15958;SDS011;8078;47.822;9.402;2022-08-21T08:43:37;4.32;;;2.28;;
15958;SDS011;8078;47.822;9.402;2022-08-21T08:46:05;4.95;;;2.72;;
15958;SDS011;8078;47.822;9.402;2022-08-21T08:53:54;6.20;;;2.67;;
15958;SDS011;8078;47.822;9.402;2022-08-21T08:56:26;5.95;;;2.60;;
15958;SDS011;8078;47.822;9.402;2022-08-21T08:58:57;4.63;;;2.50;;
15958;SDS011;8078;47.822;9.402;2022-08-21T09:01:48;7.55;;;2.42;;
15958;SDS011;8078;47.822;9.402;2022-08-21T09:04:23;5.32;;;2.20;;
15958;SDS011;8078;47.822;9.402;2022-08-21T09:09:41;6.43;;;2.10;;
15958;SDS011;8078;47.822;9.402;2022-08-21T09:28:32;6.13;;;2.80;;
15958;SDS011;8078;47.822;9.402;2022-08-21T09:30:58;6.10;;;3.17;;
15958;SDS011;8078;47.822;9.402;2022-08-21T09:33:27;6.43;;;2.55;;
15958;SDS011;8078;47.822;9.402;2022-08-21T09:35:54;4.85;;;2.40;;
15958;SDS011;8078;47.822;9.402;2022-08-21T09:38:30;4.90;;;2.40;;
15958;SDS011;8078;47.822;9.402;2022-08-21T09:41:02;5.72;;;2.80;;
15958;SDS011;8078;47.822;9.402;2022-08-21T09:43:33;3.75;;;1.95;;
15958;SDS011;8078;47.822;9.402;2022-08-21T09:48:45;3.08;;;1.75;;
15958;SDS011;8078;47.822;9.402;2022-08-21T09:51:14;2.15;;;1.27;;
15958;SDS011;8078;47.822;9.402;2022-08-21T09:56:34;2.88;;;1.42;;
15958;SDS011;8078;47.822;9.402;2022-08-21T09:59:27;4.68;;;1.85;;
15958;SDS011;8078;47.822;9.402;2022-08-21T10:01:56;2.92;;;1.80;;
15958;SDS011;8078;47.822;9.402;2022-08-21T10:04:33;2.65;;;1.60;;
15958;SDS011;8078;47.822;9.402;2022-08-21T10:07:07;3.20;;;1.58;;
15958;SDS011;8078;47.822;9.402;2022-08-21T10:09:34;3.63;;;1.95;;
15958;SDS011;8078;47.822;9.402;2022-08-21T10:17:24;3.40;;;1.90;;
15958;SDS011;8078;47.822;9.402;2022-08-21T10:25:44;3.85;;;1.58;;
15958;SDS011;8078;47.822;9.402;2022-08-21T10:28:22;3.17;;;1.60;;
15958;SDS011;8078;47.822;9.402;2022-08-21T10:39:34;2.25;;;1.52;;
15958;SDS011;8078;47.822;9.402;2022-08-21T10:42:15;2.88;;;1.85;;
15958;SDS011;8078;47.822;9.402;2022-08-21T10:47:54;1.50;;;1.40;;
15958;SDS011;8078;47.822;9.402;2022-08-21T10:50:28;1.92;;;1.40;;
15958;SDS011;8078;47.822;9.402;2022-08-21T10:55:33;2.45;;;1.20;;
15958;SDS011;8078;47.822;9.402;2022-08-21T10:58:10;3.85;;;1.25;;
15958;SDS011;8078;47.822;9.402;2022-08-21T11:00:48;1.45;;;1.35;;
15958;SDS011;8078;47.822;9.402;2022-08-21T11:03:23;2.38;;;1.25;;
15958;SDS011;8078;47.822;9.402;2022-08-21T11:06:00;1.83;;;1.20;;
15958;SDS011;8078;47.822;9.402;2022-08-21T11:08:41;5.93;;;1.65;;
15958;SDS011;8078;47.822;9.402;2022-08-21T11:14:22;2.03;;;1.40;;
15958;SDS011;8078;47.822;9.402;2022-08-21T11:16:44;2.50;;;1.23;;
15958;SDS011;8078;47.822;9.402;2022-08-21T11:19:25;2.50;;;1.38;;
15958;SDS011;8078;47.822;9.402;2022-08-21T11:22:09;1.90;;;1.50;;
15958;SDS011;8078;47.822;9.402;2022-08-21T11:27:28;3.20;;;1.33;;
15958;SDS011;8078;47.822;9.402;2022-08-21T11:29:58;4.18;;;1.40;;
15958;SDS011;8078;47.822;9.402;2022-08-21T11:38:06;2.70;;;1.35;;
15958;SDS011;8078;47.822;9.402;2022-08-21T11:43:24;5.10;;;1.27;;
15958;SDS011;8078;47.822;9.402;2022-08-21T11:45:54;1.58;;;1.20;;
15958;SDS011;8078;47.822;9.402;2022-08-21T11:48:42;3.33;;;1.33;;
15958;SDS011;8078;47.822;9.402;2022-08-21T11:51:19;2.97;;;1.23;;
15958;SDS011;8078;47.822;9.402;2022-08-21T11:53:52;2.38;;;1.40;;
15958;SDS011;8078;47.822;9.402;2022-08-21T11:56:32;2.40;;;1.40;;
15958;SDS011;8078;47.822;9.402;2022-08-21T11:59:08;4.00;;;1.35;;
15958;SDS011;8078;47.822;9.402;2022-08-21T12:01:39;1.52;;;1.30;;
15958;SDS011;8078;47.822;9.402;2022-08-21T12:04:16;1.58;;;1.30;;
15958;SDS011;8078;47.822;9.402;2022-08-21T12:06:42;1.98;;;1.30;;
15958;SDS011;8078;47.822;9.402;2022-08-21T12:09:09;1.88;;;1.40;;
15958;SDS011;8078;47.822;9.402;2022-08-21T12:12:10;2.95;;;1.38;;
15958;SDS011;8078;47.822;9.402;2022-08-21T12:14:47;4.28;;;1.63;;
15958;SDS011;8078;47.822;9.402;2022-08-21T12:17:22;2.95;;;1.50;;
15958;SDS011;8078;47.822;9.402;2022-08-21T12:19:58;5.15;;;1.30;;
15958;SDS011;8078;47.822;9.402;2022-08-21T12:22:35;1.77;;;1.30;;
15958;SDS011;8078;47.822;9.402;2022-08-21T12:25:05;1.58;;;1.45;;
15958;SDS011;8078;47.822;9.402;2022-08-21T12:32:46;3.20;;;1.42;;
15958;SDS011;8078;47.822;9.402;2022-08-21T12:36:42;2.30;;;1.90;;
15958;SDS011;8078;47.822;9.402;2022-08-21T12:39:15;1.92;;;1.70;;
15958;SDS011;8078;47.822;9.402;2022-08-21T12:41:48;1.50;;;1.40;;
15958;SDS011;8078;47.822;9.402;2022-08-21T12:44:22;1.50;;;1.40;;
15958;SDS011;8078;47.822;9.402;2022-08-21T12:46:58;2.08;;;1.45;;
15958;SDS011;8078;47.822;9.402;2022-08-21T12:49:36;2.90;;;1.35;;
15958;SDS011;8078;47.822;9.402;2022-08-21T12:52:12;3.80;;;1.40;;
15958;SDS011;8078;47.822;9.402;2022-08-21T12:54:45;3.67;;;1.60;;
15958;SDS011;8078;47.822;9.402;2022-08-21T12:59:57;1.67;;;1.20;;
15958;SDS011;8078;47.822;9.402;2022-08-21T13:02:35;2.10;;;1.52;;
15958;SDS011;8078;47.822;9.402;2022-08-21T13:05:05;2.92;;;1.60;;
15958;SDS011;8078;47.822;9.402;2022-08-21T13:07:34;2.47;;;1.40;;
15958;SDS011;8078;47.822;9.402;2022-08-21T13:10:57;1.77;;;1.48;;
15958;SDS011;8078;47.822;9.402;2022-08-21T13:13:28;3.22;;;1.30;;
15958;SDS011;8078;47.822;9.402;2022-08-21T13:15:58;2.50;;;1.23;;
15958;SDS011;8078;47.822;9.402;2022-08-21T13:18:26;2.40;;;1.92;;
15958;SDS011;8078;47.822;9.402;2022-08-21T13:21:02;2.75;;;1.70;;
15958;SDS011;8078;47.822;9.402;2022-08-21T13:23:35;2.75;;;1.10;;
15958;SDS011;8078;47.822;9.402;2022-08-21T13:26:02;1.35;;;1.17;;
15958;SDS011;8078;47.822;9.402;2022-08-21T13:28:37;2.38;;;1.50;;
15958;SDS011;8078;47.822;9.402;2022-08-21T13:31:05;4.03;;;1.55;;
15958;SDS011;8078;47.822;9.402;2022-08-21T13:33:35;1.95;;;1.55;;
15958;SDS011;8078;47.822;9.402;2022-08-21T13:36:07;3.15;;;1.33;;
15958;SDS011;8078;47.822;9.402;2022-08-21T13:38:44;2.45;;;1.40;;
15958;SDS011;8078;47.822;9.402;2022-08-21T13:41:16;1.77;;;1.20;;
15958;SDS011;8078;47.822;9.402;2022-08-21T13:43:55;3.00;;;1.67;;
15958;SDS011;8078;47.822;9.402;2022-08-21T13:46:24;3.28;;;1.42;;
15958;SDS011;8078;47.822;9.402;2022-08-21T13:48:52;3.28;;;1.50;;
15958;SDS011;8078;47.822;9.402;2022-08-21T13:51:19;1.75;;;1.50;;
15958;SDS011;8078;47.822;9.402;2022-08-21T13:53:47;1.98;;;1.58;;
15958;SDS011;8078;47.822;9.402;2022-08-21T13:56:25;3.97;;;1.77;;
15958;SDS011;8078;47.822;9.402;2022-08-21T13:58:52;1.83;;;1.50;;
15958;SDS011;8078;47.822;9.402;2022-08-21T14:01:27;1.50;;;1.40;;
15958;SDS011;8078;47.822;9.402;2022-08-21T14:03:57;3.42;;;1.48;;
15958;SDS011;8078;47.822;9.402;2022-08-21T14:06:32;2.58;;;1.73;;
15958;SDS011;8078;47.822;9.402;2022-08-21T14:09:03;1.88;;;1.50;;
15958;SDS011;8078;47.822;9.402;2022-08-21T14:11:34;4.28;;;1.83;;
15958;SDS011;8078;47.822;9.402;2022-08-21T14:14:03;3.47;;;2.13;;
15958;SDS011;8078;47.822;9.402;2022-08-21T14:16:41;2.40;;;1.70;;
15958;SDS011;8078;47.822;9.402;2022-08-21T14:19:20;2.17;;;1.65;;
15958;SDS011;8078;47.822;9.402;2022-08-21T14:21:46;2.47;;;1.77;;
15958;SDS011;8078;47.822;9.402;2022-08-21T14:24:30;2.92;;;1.63;;
15958;SDS011;8078;47.822;9.402;2022-08-21T14:27:06;2.92;;;1.58;;
15958;SDS011;8078;47.822;9.402;2022-08-21T14:29:39;2.47;;;1.48;;
15958;SDS011;8078;47.822;9.402;2022-08-21T14:32:13;2.03;;;1.83;;
15958;SDS011;8078;47.822;9.402;2022-08-21T14:37:10;1.67;;;1.50;;
15958;SDS011;8078;47.822;9.402;2022-08-21T14:39:35;1.83;;;1.45;;
15958;SDS011;8078;47.822;9.402;2022-08-21T14:42:01;2.88;;;1.30;;
15958;SDS011;8078;47.822;9.402;2022-08-21T14:44:26;1.67;;;1.40;;
15958;SDS011;8078;47.822;9.402;2022-08-21T14:46:52;1.33;;;1.23;;
15958;SDS011;8078;47.822;9.402;2022-08-21T14:49:18;1.55;;;1.30;;
15958;SDS011;8078;47.822;9.402;2022-08-21T14:51:44;3.45;;;1.40;;
15958;SDS011;8078;47.822;9.402;2022-08-21T14:54:09;2.33;;;1.30;;
15958;SDS011;8078;47.822;9.402;2022-08-21T14:56:35;4.43;;;1.67;;
15958;SDS011;8078;47.822;9.402;2022-08-21T14:59:06;1.77;;;1.40;;
15958;SDS011;8078;47.822;9.402;2022-08-21T15:01:34;1.83;;;1.58;;
15958;SDS011;8078;47.822;9.402;2022-08-21T15:04:01;3.25;;;1.67;;
15958;SDS011;8078;47.822;9.402;2022-08-21T15:06:26;1.77;;;1.20;;
15958;SDS011;8078;47.822;9.402;2022-08-21T15:10:22;2.50;;;1.40;;
15958;SDS011;8078;47.822;9.402;2022-08-21T15:12:48;2.47;;;1.48;;
15958;SDS011;8078;47.822;9.402;2022-08-21T15:15:14;1.77;;;1.45;;
15958;SDS011;8078;47.822;9.402;2022-08-21T15:17:39;3.13;;;1.75;;
15958;SDS011;8078;47.822;9.402;2022-08-21T15:20:05;2.85;;;1.40;;
15958;SDS011;8078;47.822;9.402;2022-08-21T15:22:32;2.03;;;1.30;;
15958;SDS011;8078;47.822;9.402;2022-08-21T15:24:58;1.35;;;1.20;;
15958;SDS011;8078;47.822;9.402;2022-08-21T15:27:23;1.25;;;1.15;;
15958;SDS011;8078;47.822;9.402;2022-08-21T15:29:49;1.60;;;1.50;;
15958;SDS011;8078;47.822;9.402;2022-08-21T15:32:19;1.90;;;1.40;;
15958;SDS011;8078;47.822;9.402;2022-08-21T15:34:47;3.92;;;1.70;;
15958;SDS011;8078;47.822;9.402;2022-08-21T15:37:15;1.42;;;1.27;;
15958;SDS011;8078;47.822;9.402;2022-08-21T15:39:40;2.22;;;1.23;;
15958;SDS011;8078;47.822;9.402;2022-08-21T15:42:06;2.83;;;1.52;;
15958;SDS011;8078;47.822;9.402;2022-08-21T15:44:32;1.95;;;1.27;;
15958;SDS011;8078;47.822;9.402;2022-08-21T15:46:58;4.07;;;1.20;;
15958;SDS011;8078;47.822;9.402;2022-08-21T15:49:24;1.60;;;1.40;;
15958;SDS011;8078;47.822;9.402;2022-08-21T15:51:49;1.27;;;1.17;;
15958;SDS011;8078;47.822;9.402;2022-08-21T15:54:15;3.05;;;1.58;;
15958;SDS011;8078;47.822;9.402;2022-08-21T15:56:42;1.30;;;1.20;;
15958;SDS011;8078;47.822;9.402;2022-08-21T15:59:14;1.70;;;1.60;;
15958;SDS011;8078;47.822;9.402;2022-08-21T16:01:42;2.35;;;1.52;;
15958;SDS011;8078;47.822;9.402;2022-08-21T16:04:08;2.78;;;1.70;;
15958;SDS011;8078;47.822;9.402;2022-08-21T16:06:35;2.10;;;1.40;;
15958;SDS011;8078;47.822;9.402;2022-08-21T16:09:00;3.25;;;1.30;;
15958;SDS011;8078;47.822;9.402;2022-08-21T16:11:26;2.05;;;1.15;;
15958;SDS011;8078;47.822;9.402;2022-08-21T16:13:52;3.13;;;1.58;;
15958;SDS011;8078;47.822;9.402;2022-08-21T16:16:20;2.08;;;1.30;;
15958;SDS011;8078;47.822;9.402;2022-08-21T16:18:47;1.38;;;1.17;;
15958;SDS011;8078;47.822;9.402;2022-08-21T16:21:14;2.47;;;1.20;;
15958;SDS011;8078;47.822;9.402;2022-08-21T16:23:40;2.67;;;1.42;;
15958;SDS011;8078;47.822;9.402;2022-08-21T16:26:07;1.55;;;1.40;;
15958;SDS011;8078;47.822;9.402;2022-08-21T16:28:34;2.17;;;1.40;;
15958;SDS011;8078;47.822;9.402;2022-08-21T16:31:02;4.10;;;1.58;;
15958;SDS011;8078;47.822;9.402;2022-08-21T16:33:36;4.80;;;1.40;;
15958;SDS011;8078;47.822;9.402;2022-08-21T16:36:05;1.42;;;1.20;;